Time;durP1;ratioP1;P1;durP2;ratioP2;P2;SDS_P1;SDS_P2;PMS_P1;PMS_P2;Temp;Humidity;BMP_temperature;BMP_pressure;BME280_temperature;BME280_humidity;BME280_pressure;Samples;Min_cycle;Max_cycle;Signal;HPM_P1;HPM_P2
2024/03/07 00:00:17;;;;;;;83.83;46.87;;;6.10;99.90;;;;;;6217995;22;39869;-77
2024/03/07 00:02:50;;;;;;;83.03;46.33;;;6.10;99.90;;;;;;6219043;22;37661;-77
2024/03/07 00:05:18;;;;;;;85.20;47.70;;;6.00;99.90;;;;;;6245293;22;38775;-77
2024/03/07 00:07:45;;;;;;;80.80;46.67;;;6.00;99.90;;;;;;6243601;22;40119;-77
2024/03/07 00:10:11;;;;;;;85.93;45.87;;;5.90;99.90;;;;;;6217361;22;39478;-78
2024/03/07 00:12:40;;;;;;;83.10;45.70;;;5.90;99.90;;;;;;6219296;22;36327;-78
2024/03/07 00:15:08;;;;;;;85.00;48.17;;;5.80;99.90;;;;;;6245334;22;39594;-77
2024/03/07 00:17:35;;;;;;;87.27;47.03;;;5.70;99.90;;;;;;6218846;22;37825;-77
2024/03/07 00:20:04;;;;;;;86.27;45.30;;;5.70;99.90;;;;;;6244124;22;38118;-77
2024/03/07 00:22:33;;;;;;;87.23;48.33;;;5.60;99.90;;;;;;6215238;22;37856;-77
2024/03/07 00:24:59;;;;;;;99.47;49.87;;;5.50;99.90;;;;;;6245587;22;39362;-77
2024/03/07 00:27:26;;;;;;;86.43;47.20;;;5.50;99.90;;;;;;6244838;22;38515;-77
2024/03/07 00:29:54;;;;;;;83.10;45.90;;;5.40;99.90;;;;;;6214666;22;39034;-77
2024/03/07 00:32:21;;;;;;;90.97;47.33;;;5.40;99.90;;;;;;6239874;22;38112;-77
2024/03/07 00:34:47;;;;;;;83.33;46.80;;;5.40;99.90;;;;;;6241701;22;37725;-77
2024/03/07 00:37:14;;;;;;;93.03;47.70;;;5.40;99.90;;;;;;6237039;22;38529;-77
2024/03/07 00:39:41;;;;;;;93.60;48.00;;;5.40;99.90;;;;;;6213377;22;36987;-77
2024/03/07 00:42:08;;;;;;;92.70;49.63;;;5.40;99.90;;;;;;6240148;22;37708;-77
2024/03/07 00:44:34;;;;;;;90.83;49.43;;;5.40;99.90;;;;;;6213651;22;37873;-77
2024/03/07 00:47:04;;;;;;;99.80;50.40;;;5.40;99.90;;;;;;6241440;22;38937;-77
2024/03/07 00:49:30;;;;;;;98.70;51.40;;;5.40;99.90;;;;;;6208757;22;47644;-77
2024/03/07 00:51:59;;;;;;;92.33;49.00;;;5.30;99.90;;;;;;6210953;22;36111;-76
2024/03/07 00:54:25;;;;;;;92.93;49.30;;;5.30;99.90;;;;;;6217401;22;37949;-77
2024/03/07 00:56:51;;;;;;;94.47;48.03;;;5.30;99.90;;;;;;6245454;22;38850;-77
2024/03/07 00:59:17;;;;;;;88.23;47.67;;;5.20;99.90;;;;;;6241898;22;37348;-77
2024/03/07 01:01:43;;;;;;;96.93;48.87;;;5.10;99.90;;;;;;6242157;22;37821;-78
2024/03/07 01:04:10;;;;;;;92.00;47.67;;;5.10;99.90;;;;;;6242733;22;38580;-78
2024/03/07 01:06:36;;;;;;;99.07;51.60;;;5.10;99.90;;;;;;6217713;22;37369;-77
2024/03/07 01:09:02;;;;;;;101.53;51.17;;;5.10;99.90;;;;;;6244399;22;38868;-77
2024/03/07 01:11:29;;;;;;;98.13;49.87;;;5.00;99.90;;;;;;6217026;22;36219;-77
2024/03/07 01:13:55;;;;;;;90.80;49.83;;;5.00;99.90;;;;;;6245001;22;39049;-77
2024/03/07 01:16:22;;;;;;;97.60;48.27;;;4.90;99.90;;;;;;6217606;22;37302;-77
2024/03/07 01:18:49;;;;;;;86.53;46.53;;;4.80;99.90;;;;;;6220002;22;38653;-77
2024/03/07 01:21:15;;;;;;;95.20;50.13;;;4.80;99.90;;;;;;6218189;22;37130;-77
2024/03/07 01:23:41;;;;;;;98.13;51.37;;;4.70;99.90;;;;;;6241843;22;38012;-76
2024/03/07 01:26:08;;;;;;;99.40;52.43;;;4.70;99.90;;;;;;6245653;22;37627;-76
2024/03/07 01:28:34;;;;;;;93.97;49.73;;;4.70;99.90;;;;;;6216431;22;38647;-76
2024/03/07 01:31:00;;;;;;;95.43;49.03;;;4.70;99.90;;;;;;6243396;22;37149;-76
2024/03/07 01:33:27;;;;;;;88.90;47.53;;;4.70;99.90;;;;;;6242409;22;39270;-77
2024/03/07 01:35:53;;;;;;;95.23;48.93;;;4.70;99.90;;;;;;6242264;22;38658;-77
2024/03/07 01:38:19;;;;;;;96.30;52.90;;;4.70;99.90;;;;;;6212355;22;37654;-76
2024/03/07 01:40:45;;;;;;;89.40;49.70;;;4.70;99.90;;;;;;6241914;22;37967;-77
2024/03/07 01:43:12;;;;;;;96.47;52.23;;;4.80;99.90;;;;;;6213810;22;38715;-76
2024/03/07 01:45:38;;;;;;;116.23;55.60;;;4.80;99.90;;;;;;6244294;22;38750;-76
2024/03/07 01:48:07;;;;;;;105.10;53.70;;;4.90;99.90;;;;;;6214403;22;37401;-76
2024/03/07 01:50:34;;;;;;;99.47;52.63;;;4.90;99.90;;;;;;6244760;22;37523;-76
2024/03/07 01:53:01;;;;;;;102.10;52.63;;;4.90;99.90;;;;;;6217903;22;37569;-76
2024/03/07 01:55:27;;;;;;;100.40;52.37;;;4.90;99.90;;;;;;6217258;22;47172;-76
2024/03/07 01:57:59;;;;;;;103.43;53.60;;;4.80;99.90;;;;;;6219276;22;36980;-76
2024/03/07 02:03:01;;;;;;;102.27;51.67;;;4.80;99.90;;;;;;6231735;22;20037;-77
2024/03/07 02:05:27;;;;;;;103.93;52.77;;;4.80;99.90;;;;;;6247691;22;37210;-76
2024/03/07 02:07:53;;;;;;;114.27;55.10;;;4.90;99.90;;;;;;6249524;22;38208;-76
2024/03/07 02:10:19;;;;;;;106.10;56.00;;;4.90;99.90;;;;;;6248350;22;37724;-76
2024/03/07 02:12:45;;;;;;;106.50;53.87;;;4.90;99.90;;;;;;6251478;22;37707;-76
2024/03/07 02:15:13;;;;;;;116.03;56.97;;;4.90;99.90;;;;;;6252806;22;39545;-75
2024/03/07 02:17:40;;;;;;;102.67;53.80;;;4.90;99.90;;;;;;6250965;22;37439;-76
2024/03/07 02:20:09;;;;;;;107.77;56.57;;;4.90;99.90;;;;;;6250969;22;38512;-76
2024/03/07 02:22:39;;;;;;;114.63;56.23;;;4.90;99.90;;;;;;6253916;22;39740;-76
2024/03/07 02:25:06;;;;;;;114.67;56.13;;;4.90;99.90;;;;;;6250181;22;38243;-76
2024/03/07 02:27:32;;;;;;;110.27;55.27;;;4.90;99.90;;;;;;6252878;22;38920;-76
2024/03/07 02:29:58;;;;;;;105.80;53.53;;;4.90;99.90;;;;;;6247287;22;36535;-76
2024/03/07 02:32:26;;;;;;;102.70;54.00;;;4.80;99.90;;;;;;6249318;22;38954;-76
2024/03/07 02:34:52;;;;;;;107.03;52.73;;;4.80;99.90;;;;;;6248535;22;37319;-76
2024/03/07 02:37:18;;;;;;;111.37;53.47;;;4.80;99.90;;;;;;6246887;22;37052;-76
2024/03/07 02:39:45;;;;;;;112.23;55.43;;;4.90;99.90;;;;;;6245556;22;38443;-76
2024/03/07 02:42:11;;;;;;;101.90;53.10;;;4.80;99.90;;;;;;6246646;22;40593;-76
2024/03/07 02:44:38;;;;;;;106.83;54.27;;;4.80;99.90;;;;;;6246713;22;38656;-76
2024/03/07 02:47:05;;;;;;;104.70;54.63;;;4.80;99.90;;;;;;6247805;22;38565;-75
2024/03/07 02:49:32;;;;;;;111.27;55.60;;;4.80;99.90;;;;;;6246179;22;38810;-76
2024/03/07 02:51:58;;;;;;;99.27;52.10;;;4.70;99.90;;;;;;6247263;22;39138;-76
2024/03/07 02:54:24;;;;;;;100.90;53.87;;;4.70;99.90;;;;;;6247939;22;38748;-76
2024/03/07 02:56:50;;;;;;;106.70;54.20;;;4.60;99.90;;;;;;6247235;22;37933;-76
2024/03/07 02:59:16;;;;;;;107.50;54.40;;;4.60;99.90;;;;;;6243802;22;38640;-76
2024/03/07 03:01:42;;;;;;;110.40;56.20;;;4.60;99.90;;;;;;6245409;22;40317;-76
2024/03/07 03:04:08;;;;;;;111.00;56.13;;;4.60;99.90;;;;;;6243487;22;38422;-76
2024/03/07 03:06:35;;;;;;;111.60;54.87;;;4.60;99.90;;;;;;6247154;22;38171;-76
2024/03/07 03:09:01;;;;;;;105.60;55.40;;;4.60;99.90;;;;;;6245155;22;37897;-75
2024/03/07 03:11:27;;;;;;;113.27;55.53;;;4.60;99.90;;;;;;6244199;22;46908;-76
2024/03/07 03:13:53;;;;;;;109.53;54.77;;;4.60;99.90;;;;;;6245356;22;37159;-76
2024/03/07 03:16:20;;;;;;;116.53;56.57;;;4.60;99.90;;;;;;6245583;22;38104;-76
2024/03/07 03:18:48;;;;;;;118.13;56.93;;;4.60;99.90;;;;;;6245026;22;37778;-76
2024/03/07 03:21:15;;;;;;;118.93;56.97;;;4.50;99.90;;;;;;6244774;22;39309;-76
2024/03/07 03:23:41;;;;;;;122.30;58.23;;;4.60;99.90;;;;;;6245135;22;38531;-76
2024/03/07 03:26:08;;;;;;;119.00;58.90;;;4.50;99.90;;;;;;6246576;22;39122;-76
2024/03/07 03:28:34;;;;;;;124.00;59.90;;;4.50;99.90;;;;;;6245786;22;37377;-76
2024/03/07 03:31:00;;;;;;;120.77;59.67;;;4.60;99.90;;;;;;6243440;22;38775;-76
2024/03/07 03:33:26;;;;;;;114.43;60.57;;;4.60;99.90;;;;;;6242949;22;40659;-76
2024/03/07 03:35:55;;;;;;;120.93;59.23;;;4.60;99.90;;;;;;6244137;22;39034;-76
2024/03/07 03:38:21;;;;;;;135.07;61.93;;;4.60;99.90;;;;;;6243338;22;36238;-76
2024/03/07 03:40:47;;;;;;;131.80;61.60;;;4.60;99.90;;;;;;6242433;22;38312;-75
2024/03/07 03:43:15;;;;;;;124.07;62.13;;;4.60;99.90;;;;;;6241966;22;37180;-76
2024/03/07 03:45:41;;;;;;;137.97;63.93;;;4.60;99.90;;;;;;6241059;22;37675;-76
2024/03/07 03:48:07;;;;;;;147.20;67.00;;;4.60;99.90;;;;;;6245270;22;36746;-76
2024/03/07 03:50:33;;;;;;;143.77;65.63;;;4.60;99.90;;;;;;6244288;22;39409;-76
2024/03/07 03:53:02;;;;;;;125.27;62.73;;;4.70;99.90;;;;;;6247024;22;39129;-76
2024/03/07 03:55:28;;;;;;;126.90;60.93;;;4.60;99.90;;;;;;6244481;22;47037;-76
2024/03/07 03:57:54;;;;;;;128.87;63.40;;;4.60;99.90;;;;;;6244990;22;38309;-76
2024/03/07 04:00:22;;;;;;;127.27;65.17;;;4.60;99.90;;;;;;6246124;22;39159;-76
2024/03/07 04:02:48;;;;;;;146.87;65.87;;;4.60;99.90;;;;;;6244724;22;39466;-76
2024/03/07 04:05:17;;;;;;;129.27;65.53;;;4.60;99.90;;;;;;6245145;22;38125;-76
2024/03/07 04:07:43;;;;;;;136.57;64.90;;;4.60;99.90;;;;;;6245266;22;38245;-76
2024/03/07 04:10:11;;;;;;;132.90;67.17;;;4.60;99.90;;;;;;6241171;22;37469;-76
2024/03/07 04:12:39;;;;;;;135.13;66.70;;;4.60;99.90;;;;;;6242699;22;40080;-76
2024/03/07 04:15:18;;;;;;;136.07;65.47;;;4.60;99.90;;;;;;6240800;22;39291;-75
2024/03/07 04:17:46;;;;;;;136.40;65.87;;;4.60;99.90;;;;;;6246260;22;37598;-76
2024/03/07 04:20:13;;;;;;;136.90;66.10;;;4.60;99.90;;;;;;6241990;22;40211;-77
2024/03/07 04:22:39;;;;;;;136.43;65.10;;;4.60;99.90;;;;;;6241628;22;38738;-76
2024/03/07 04:25:07;;;;;;;122.43;62.63;;;4.50;99.90;;;;;;6241354;22;38487;-75
2024/03/07 04:27:36;;;;;;;124.90;61.67;;;4.50;99.90;;;;;;6244471;22;38708;-76
2024/03/07 04:30:04;;;;;;;121.00;62.60;;;4.50;99.90;;;;;;6244244;22;39918;-76
2024/03/07 04:32:30;;;;;;;127.97;64.77;;;4.50;99.90;;;;;;6243321;22;40311;-76
2024/03/07 04:34:57;;;;;;;136.83;64.43;;;4.50;99.90;;;;;;6247069;22;40080;-76
2024/03/07 04:37:23;;;;;;;140.17;66.50;;;4.50;99.90;;;;;;6249170;22;38429;-77
2024/03/07 04:39:49;;;;;;;124.60;62.13;;;4.50;99.90;;;;;;6246119;22;39942;-76
2024/03/07 04:42:15;;;;;;;144.47;68.10;;;4.50;99.90;;;;;;6240716;22;37642;-76
2024/03/07 04:44:42;;;;;;;128.97;64.43;;;4.50;99.90;;;;;;6242698;22;39591;-77
2024/03/07 04:47:09;;;;;;;147.43;68.57;;;4.50;99.90;;;;;;6242643;22;20322;-76
2024/03/07 04:49:35;;;;;;;138.17;65.93;;;4.50;99.90;;;;;;6244075;22;39787;-76
2024/03/07 04:52:03;;;;;;;138.03;65.40;;;4.50;99.90;;;;;;6245484;22;38744;-76
2024/03/07 04:54:31;;;;;;;141.43;66.70;;;4.40;99.90;;;;;;6242471;22;47229;-77
2024/03/07 04:56:57;;;;;;;136.47;65.77;;;4.40;99.90;;;;;;6243831;22;36477;-76
2024/03/07 04:59:23;;;;;;;125.97;63.37;;;4.40;99.90;;;;;;6239693;22;37721;-76
2024/03/07 05:01:50;;;;;;;136.23;64.63;;;4.40;99.90;;;;;;6221089;22;39588;-75
2024/03/07 05:04:17;;;;;;;128.57;64.30;;;4.40;99.90;;;;;;6206993;22;38906;-76
2024/03/07 05:06:43;;;;;;;120.67;63.27;;;4.30;99.90;;;;;;6212869;23;38202;-76
2024/03/07 05:09:22;;;;;;;117.00;62.13;;;4.30;99.90;;;;;;6212081;22;39316;-76
2024/03/07 05:11:52;;;;;;;121.13;62.70;;;4.30;99.90;;;;;;6209063;22;38344;-77
2024/03/07 05:14:18;;;;;;;120.47;62.70;;;4.20;99.90;;;;;;6209476;22;39320;-76
2024/03/07 05:16:44;;;;;;;126.40;62.93;;;4.20;99.90;;;;;;6211694;22;38332;-76
2024/03/07 05:19:11;;;;;;;130.43;63.23;;;4.20;99.90;;;;;;6234857;22;37513;-76
2024/03/07 05:21:38;;;;;;;124.83;63.73;;;4.10;99.90;;;;;;6235775;22;38696;-77
2024/03/07 05:24:06;;;;;;;137.30;63.47;;;4.10;99.90;;;;;;6235226;22;38388;-76
2024/03/07 05:26:40;;;;;;;141.93;64.93;;;4.10;99.90;;;;;;6238067;22;36177;-76
2024/03/07 05:29:08;;;;;;;123.57;63.93;;;4.10;99.90;;;;;;6234762;22;37929;-76
2024/03/07 05:31:36;;;;;;;133.63;66.67;;;4.10;99.90;;;;;;6236614;22;37627;-76
2024/03/07 05:34:04;;;;;;;133.80;66.87;;;4.20;99.90;;;;;;6213824;22;38398;-76
2024/03/07 05:36:32;;;;;;;140.70;68.50;;;4.20;99.90;;;;;;6212839;22;37209;-76
2024/03/07 05:39:10;;;;;;;126.90;64.97;;;4.20;99.90;;;;;;6215274;22;39030;-76
2024/03/07 05:41:41;;;;;;;137.53;67.50;;;4.20;99.90;;;;;;6235707;22;47147;-76
2024/03/07 05:44:08;;;;;;;135.87;67.33;;;4.20;99.90;;;;;;6212519;22;38033;-76
2024/03/07 05:46:45;;;;;;;135.00;63.87;;;4.20;99.90;;;;;;6236034;22;36713;-76
2024/03/07 05:49:13;;;;;;;131.63;64.33;;;4.20;99.90;;;;;;6214238;22;40469;-76
2024/03/07 05:51:41;;;;;;;138.00;68.27;;;4.20;99.90;;;;;;6236036;22;37480;-76
2024/03/07 05:54:08;;;;;;;150.77;69.57;;;4.20;99.90;;;;;;6236191;22;37297;-76
2024/03/07 05:56:38;;;;;;;133.37;66.30;;;4.30;99.90;;;;;;6214626;22;37305;-76
2024/03/07 05:59:07;;;;;;;128.07;65.53;;;4.30;99.90;;;;;;6236629;22;37813;-76
2024/03/07 06:01:34;;;;;;;129.00;65.20;;;4.30;99.90;;;;;;6234187;22;37827;-76
2024/03/07 06:04:11;;;;;;;133.27;66.33;;;4.30;99.90;;;;;;6210447;23;37066;-76
2024/03/07 06:06:37;;;;;;;127.33;65.43;;;4.40;99.90;;;;;;6218026;23;47177;-77
2024/03/07 06:09:07;;;;;;;137.67;66.70;;;4.40;99.90;;;;;;6243377;22;38668;-76
2024/03/07 06:11:37;;;;;;;140.10;67.67;;;4.40;99.90;;;;;;6236534;22;38520;-76
2024/03/07 06:14:05;;;;;;;140.17;70.30;;;4.30;99.90;;;;;;6236628;22;38581;-76
2024/03/07 06:16:37;;;;;;;132.13;67.13;;;4.40;99.90;;;;;;6235684;22;36381;-77
2024/03/07 06:19:07;;;;;;;;;;;4.40;99.90;;;;;;6216593;22;39090;-77
2024/03/07 06:21:34;;;;;;;147.23;67.10;;;4.40;99.90;;;;;;6216840;22;38591;-77
2024/03/07 06:24:01;;;;;;;143.60;68.57;;;4.40;99.90;;;;;;6239821;22;37186;-76
2024/03/07 06:29:08;;;;;;;145.63;70.90;;;4.40;99.90;;;;;;6217856;22;39163;-76
2024/03/07 06:31:36;;;;;;;133.97;67.23;;;4.40;99.90;;;;;;6238232;22;37348;-76
2024/03/07 06:34:03;;;;;;;133.07;69.87;;;4.40;99.90;;;;;;6215598;22;37325;-77
2024/03/07 06:36:29;;;;;;;141.10;68.03;;;4.50;99.90;;;;;;6216715;22;36327;-77
2024/03/07 06:38:55;;;;;;;125.30;65.77;;;4.40;99.90;;;;;;6241474;22;37996;-77
2024/03/07 06:41:22;;;;;;;129.87;66.67;;;4.40;99.90;;;;;;6216690;22;39265;-77
2024/03/07 06:43:53;;;;;;;130.50;65.10;;;4.40;99.90;;;;;;6244297;22;37360;-76
2024/03/07 06:46:20;;;;;;;128.33;67.63;;;4.40;99.90;;;;;;6243520;22;36547;-79
2024/03/07 06:48:46;;;;;;;132.53;67.47;;;4.40;99.90;;;;;;6224307;22;39299;-78
2024/03/07 06:51:12;;;;;;;141.43;67.47;;;4.40;99.90;;;;;;6247932;22;37280;-78
2024/03/07 06:53:39;;;;;;;128.63;65.50;;;4.50;99.90;;;;;;6248435;22;37445;-78
2024/03/07 06:56:09;;;;;;;132.43;67.20;;;4.50;99.90;;;;;;6246677;22;37477;-78
2024/03/07 06:58:35;;;;;;;137.97;66.63;;;4.60;99.90;;;;;;6217048;23;38733;-78
2024/03/07 07:01:01;;;;;;;111.67;64.67;;;4.60;99.90;;;;;;6242453;22;39220;-78
2024/03/07 07:03:29;;;;;;;123.67;63.13;;;4.60;99.90;;;;;;6248264;22;47305;-78
2024/03/07 07:05:55;;;;;;;123.80;64.10;;;4.60;99.90;;;;;;6243954;22;39469;-77
2024/03/07 07:08:22;;;;;;;117.40;63.73;;;4.50;99.90;;;;;;6250608;22;38442;-78
2024/03/07 07:10:49;;;;;;;129.80;66.53;;;4.60;99.90;;;;;;6254616;22;38196;-78
2024/03/07 07:13:18;;;;;;;120.60;63.50;;;4.60;99.90;;;;;;6251339;22;38358;-78
2024/03/07 07:15:44;;;;;;;121.43;64.40;;;4.60;99.90;;;;;;6248130;22;37212;-78
2024/03/07 07:18:13;;;;;;;120.87;64.07;;;4.60;99.90;;;;;;6246995;22;38680;-78
2024/03/07 07:20:39;;;;;;;116.17;64.83;;;4.70;99.90;;;;;;6245135;22;39777;-78
2024/03/07 07:23:06;;;;;;;120.67;61.93;;;4.70;99.90;;;;;;6246408;22;39886;-78
2024/03/07 07:25:32;;;;;;;131.10;63.83;;;4.70;99.90;;;;;;6247569;22;37444;-78
2024/03/07 07:27:58;;;;;;;129.87;65.30;;;4.70;99.90;;;;;;6245448;22;39432;-78
2024/03/07 07:30:26;;;;;;;121.37;62.97;;;4.80;99.90;;;;;;6245704;22;39651;-78
2024/03/07 07:32:53;;;;;;;132.20;65.10;;;4.80;99.90;;;;;;6249947;22;38882;-77
2024/03/07 07:35:20;;;;;;;123.07;62.30;;;4.80;99.90;;;;;;6247985;22;36363;-78
2024/03/07 07:37:53;;;;;;;125.97;64.43;;;4.90;99.90;;;;;;6247408;22;38927;-79
2024/03/07 07:40:22;;;;;;;;;;;4.90;99.90;;;;;;6244172;22;39079;-77
2024/03/07 07:42:51;;;;;;;120.53;60.60;;;5.00;99.90;;;;;;6247130;22;39788;-78
2024/03/07 07:45:19;;;;;;;116.23;60.13;;;5.00;99.90;;;;;;6245754;22;36665;-78
2024/03/07 07:47:49;;;;;;;115.30;60.43;;;5.10;99.90;;;;;;6245760;22;37613;-77
2024/03/07 07:50:18;;;;;;;112.87;62.83;;;5.10;99.90;;;;;;6242910;22;38944;-77
2024/03/07 07:52:47;;;;;;;113.17;59.77;;;5.20;99.90;;;;;;6244086;22;37648;-78
2024/03/07 07:55:15;;;;;;;117.30;62.33;;;5.20;99.90;;;;;;6243739;22;38843;-78
2024/03/07 07:57:45;;;;;;;111.80;58.83;;;5.30;99.90;;;;;;6243751;22;40031;-77
2024/03/07 08:00:21;;;;;;;114.43;60.70;;;5.30;99.90;;;;;;6246904;22;39104;-78
2024/03/07 08:02:52;;;;;;;113.63;58.97;;;5.30;99.90;;;;;;6247438;22;38139;-78
2024/03/07 08:05:22;;;;;;;99.37;57.40;;;5.40;99.90;;;;;;6247073;22;38568;-78
2024/03/07 08:07:50;;;;;;;103.17;57.30;;;5.40;99.90;;;;;;6247375;22;38786;-78
2024/03/07 08:10:20;;;;;;;105.23;56.60;;;5.50;99.90;;;;;;6243751;22;37301;-78
2024/03/07 08:12:48;;;;;;;103.07;56.83;;;5.60;99.90;;;;;;6244088;22;37091;-79
2024/03/07 08:15:15;;;;;;;100.57;56.27;;;5.60;99.90;;;;;;6243290;22;36208;-78
2024/03/07 08:17:43;;;;;;;96.73;54.27;;;5.60;99.90;;;;;;6245614;22;40220;-78
2024/03/07 08:20:18;;;;;;;94.33;53.53;;;5.70;99.90;;;;;;6245799;22;38459;-78
2024/03/07 08:22:45;;;;;;;95.57;51.47;;;5.70;99.90;;;;;;6247520;22;38639;-78
2024/03/07 08:25:15;;;;;;;97.33;54.73;;;5.80;99.90;;;;;;6243578;22;39077;-78
2024/03/07 08:27:43;;;;;;;93.87;54.10;;;5.80;99.90;;;;;;6246222;22;39084;-78
2024/03/07 08:30:14;;;;;;;93.77;53.33;;;6.00;99.90;;;;;;6242191;22;40337;-78
2024/03/07 08:32:44;;;;;;;92.73;53.33;;;6.00;99.90;;;;;;6245899;22;38934;-78
2024/03/07 08:35:11;;;;;;;86.93;50.30;;;6.10;99.90;;;;;;6244264;22;36579;-78
2024/03/07 08:37:45;;;;;;;86.50;50.23;;;6.10;99.90;;;;;;6246316;22;40001;-78
2024/03/07 08:40:22;;;;;;;77.93;47.13;;;6.30;99.90;;;;;;6247463;22;38611;-78
2024/03/07 08:42:53;;;;;;;77.20;47.47;;;6.30;96.90;;;;;;6244245;22;38315;-79
2024/03/07 08:45:20;;;;;;;72.22;45.70;;;6.40;90.90;;;;;;6243303;22;39163;-78
2024/03/07 08:47:48;;;;;;;68.67;42.30;;;6.50;73.90;;;;;;6260952;22;39049;-78
2024/03/07 08:50:17;;;;;;;75.17;41.67;;;6.60;61.20;;;;;;6248544;22;37305;-77
2024/03/07 08:52:45;;;;;;;62.73;41.50;;;6.70;46.30;;;;;;6254865;22;36838;-78
2024/03/07 08:55:21;;;;;;;65.77;40.93;;;6.80;31.30;;;;;;6250940;22;37116;-78
2024/03/07 08:57:48;;;;;;;65.40;40.37;;;6.90;34.20;;;;;;6254171;22;37559;-79
2024/03/07 09:00:22;;;;;;;63.63;39.30;;;7.00;27.10;;;;;;6249733;22;38953;-78
2024/03/07 09:02:52;;;;;;;65.53;39.60;;;7.00;13.60;;;;;;6248232;22;36743;-78
2024/03/07 09:05:20;;;;;;;59.23;37.17;;;7.10;17.50;;;;;;6251145;22;37713;-78
2024/03/07 09:07:46;;;;;;;55.33;36.87;;;7.00;1.00;;;;;;6251180;22;38314;-78
2024/03/07 09:10:17;;;;;;;58.00;36.67;;;7.10;1.00;;;;;;6251119;22;38388;-78
2024/03/07 09:12:44;;;;;;;52.63;33.83;;;7.10;1.00;;;;;;6247864;22;38425;-78
2024/03/07 09:15:11;;;;;;;52.10;33.90;;;7.20;1.00;;;;;;6244309;22;36831;-78
2024/03/07 09:17:38;;;;;;;52.63;34.63;;;7.30;1.00;;;;;;6249892;22;39127;-78
2024/03/07 09:20:13;;;;;;;54.47;36.00;;;7.40;1.00;;;;;;6246238;22;37418;-79
2024/03/07 09:22:41;;;;;;;51.83;34.13;;;7.40;1.00;;;;;;6246306;22;37953;-78
2024/03/07 09:25:08;;;;;;;53.70;33.40;;;7.60;1.00;;;;;;6245031;22;37557;-78
2024/03/07 09:27:34;;;;;;;48.10;32.07;;;7.70;1.00;;;;;;6244810;22;37720;-77
2024/03/07 09:30:01;;;;;;;49.37;31.03;;;7.70;1.00;;;;;;6245671;22;37667;-78
2024/03/07 09:32:27;;;;;;;45.50;29.93;;;7.70;1.00;;;;;;6244353;22;38380;-78
2024/03/07 09:34:54;;;;;;;48.33;29.73;;;7.70;1.00;;;;;;6247421;22;37525;-77
2024/03/07 09:37:23;;;;;;;43.80;28.50;;;7.80;1.00;;;;;;6245327;22;37788;-77
2024/03/07 09:39:49;;;;;;;39.53;26.97;;;7.90;1.00;;;;;;6245818;22;37278;-78
2024/03/07 09:42:18;;;;;;;36.90;25.90;;;8.00;1.00;;;;;;6246017;22;38958;-78
2024/03/07 09:44:47;;;;;;;42.43;27.30;;;8.00;1.00;;;;;;6240901;22;38994;-78
2024/03/07 09:47:13;;;;;;;37.00;25.27;;;7.90;1.00;;;;;;6247236;22;39374;-78
2024/03/07 09:49:40;;;;;;;37.27;25.17;;;8.00;1.00;;;;;;6250423;22;39359;-78
2024/03/07 09:52:12;;;;;;;38.17;26.70;;;8.00;1.00;;;;;;6257137;22;37957;-77
2024/03/07 09:54:40;;;;;;;38.13;25.80;;;8.10;1.00;;;;;;6258104;22;36244;-78
2024/03/07 09:57:07;;;;;;;35.80;23.93;;;8.20;1.00;;;;;;6253007;22;39549;-78
2024/03/07 09:59:40;;;;;;;39.17;24.73;;;8.20;1.00;;;;;;6252403;22;37251;-78
2024/03/07 10:02:09;;;;;;;;;;;8.20;1.00;;;;;;6254219;22;39322;-77
2024/03/07 10:04:36;;;;;;;30.67;23.03;;;8.30;1.00;;;;;;6251346;22;36470;-78
2024/03/07 10:07:02;;;;;;;31.30;22.63;;;8.40;1.00;;;;;;6243893;22;37802;-78
2024/03/07 10:09:32;;;;;;;31.10;22.20;;;8.50;1.00;;;;;;6246882;22;37961;-78
2024/03/07 10:11:58;;;;;;;30.03;20.50;;;8.80;1.00;;;;;;6245014;22;37028;-78
2024/03/07 10:14:25;;;;;;;28.77;20.30;;;8.90;1.00;;;;;;6247603;22;37814;-78
2024/03/07 10:16:56;;;;;;;34.60;22.70;;;8.80;1.00;;;;;;6248518;22;38812;-78
2024/03/07 10:19:22;;;;;;;28.87;20.27;;;8.70;1.00;;;;;;6247395;22;38457;-78
2024/03/07 10:21:49;;;;;;;29.57;20.33;;;8.80;1.00;;;;;;6246901;22;38505;-78
2024/03/07 10:24:15;;;;;;;33.07;21.03;;;8.80;1.00;;;;;;6247491;22;37542;-78
2024/03/07 10:26:43;;;;;;;29.10;21.17;;;8.90;1.00;;;;;;6245535;22;39272;-78
2024/03/07 10:29:09;;;;;;;27.67;18.87;;;9.00;1.00;;;;;;6244943;22;38486;-78
2024/03/07 10:31:38;;;;;;;26.43;18.20;;;9.10;1.00;;;;;;6246748;22;37968;-78
2024/03/07 10:34:05;;;;;;;28.07;17.70;;;9.00;1.00;;;;;;6244008;22;37875;-78
2024/03/07 10:36:32;;;;;;;23.70;17.27;;;9.10;1.00;;;;;;6246932;22;39429;-77
2024/03/07 10:39:12;;;;;;;25.50;18.50;;;9.10;1.00;;;;;;6245827;22;37519;-77
2024/03/07 10:41:44;;;;;;;27.80;17.73;;;9.00;1.00;;;;;;6238828;22;47058;-78
2024/03/07 10:44:16;;;;;;;26.92;17.83;;;9.10;1.00;;;;;;6240471;22;35762;-78
2024/03/07 10:46:46;;;;;;;26.03;17.00;;;9.20;1.00;;;;;;6242936;22;39294;-78
2024/03/07 10:49:16;;;;;;;27.10;17.67;;;9.20;1.00;;;;;;6245939;22;39119;-77
2024/03/07 10:51:47;;;;;;;23.30;17.07;;;9.20;1.00;;;;;;6247208;22;36983;-78
2024/03/07 10:54:30;;;;;;;26.88;18.45;;;9.30;1.00;;;;;;6245416;22;36036;-78
2024/03/07 10:57:05;;;;;;;;;;;9.40;1.00;;;;;;6247805;22;39705;-77
2024/03/07 10:59:33;;;;;;;24.90;16.33;;;9.60;1.00;;;;;;6243833;22;47708;-78
2024/03/07 11:02:12;;;;;;;22.93;16.53;;;9.70;99.90;;;;;;6247997;22;38272;-78
2024/03/07 11:04:39;;;;;;;24.23;15.70;;;9.60;99.90;;;;;;6242259;22;48613;-78
2024/03/07 11:07:06;;;;;;;22.00;15.33;;;9.60;1.00;;;;;;6246870;22;39685;-78
2024/03/07 11:09:34;;;;;;;18.93;15.20;;;9.70;1.00;;;;;;6248095;22;38632;-78
2024/03/07 11:12:06;;;;;;;26.43;16.90;;;9.80;1.00;;;;;;6245887;22;37288;-77
2024/03/07 11:14:34;;;;;;;25.10;17.35;;;9.90;16.00;;;;;;6245974;22;47381;-78
2024/03/07 11:17:01;;;;;;;27.17;18.70;;;9.80;1.00;;;;;;6245951;22;39198;-78
2024/03/07 11:19:36;;;;;;;24.77;17.33;;;9.90;1.00;;;;;;6245339;22;37283;-78
2024/03/07 11:22:15;;;;;;;25.13;18.37;;;9.80;99.90;;;;;;6246956;22;39636;-78
2024/03/07 11:24:42;;;;;;;23.00;17.70;;;9.80;1.00;;;;;;6248633;22;37147;-78
2024/03/07 11:27:15;;;;;;;22.83;18.20;;;9.90;99.90;;;;;;6246638;22;38781;-78
2024/03/07 11:29:53;;;;;;;22.73;17.63;;;9.80;1.00;;;;;;6248520;22;38673;-78
2024/03/07 11:32:23;;;;;;;26.17;18.37;;;9.90;99.90;;;;;;6245935;22;39809;-78
2024/03/07 11:34:50;;;;;;;24.43;18.30;;;10.10;23.50;;;;;;6251595;22;36340;-78
2024/03/07 11:37:23;;;;;;;26.13;18.80;;;10.30;1.00;;;;;;6249969;22;39520;-78
2024/03/07 11:39:53;;;;;;;26.63;19.07;;;10.40;1.00;;;;;;6248594;22;38595;-78
2024/03/07 11:42:21;;;;;;;26.73;18.67;;;10.30;1.00;;;;;;6248610;22;39320;-78
2024/03/07 11:44:51;;;;;;;24.90;18.27;;;10.40;1.00;;;;;;6255188;22;38611;-77
2024/03/07 11:47:18;;;;;;;27.87;17.87;;;10.30;19.00;;;;;;6254136;22;37456;-76
2024/03/07 11:49:48;;;;;;;22.52;17.27;;;10.40;99.90;;;;;;6259841;22;37665;-77
2024/03/07 11:52:16;;;;;;;24.92;17.48;;;10.70;1.00;;;;;;6254247;22;37291;-77
2024/03/07 11:54:46;;;;;;;23.73;17.97;;;11.00;99.90;;;;;;6253760;22;36527;-77
2024/03/07 11:57:15;;;;;;;23.07;17.07;;;11.00;99.90;;;;;;6254624;22;37508;-78
2024/03/07 11:59:46;;;;;;;22.70;16.17;;;11.00;1.00;;;;;;6257990;22;38290;-78
2024/03/07 12:02:14;;;;;;;19.67;15.43;;;11.00;1.00;;;;;;6254441;22;39397;-77
2024/03/07 12:04:44;;;;;;;21.13;15.75;;;10.80;43.80;;;;;;6255978;22;39541;-77
2024/03/07 12:07:10;;;;;;;20.55;15.50;;;10.90;1.00;;;;;;6256865;22;38860;-78
2024/03/07 12:09:38;;;;;;;21.30;15.03;;;10.80;1.00;;;;;;6254157;22;38573;-78
2024/03/07 12:12:06;;;;;;;22.70;16.03;;;10.90;1.00;;;;;;6253113;22;38005;-77
2024/03/07 12:14:33;;;;;;;23.10;17.60;;;11.20;1.00;;;;;;6251377;22;37011;-78
2024/03/07 12:17:03;;;;;;;20.50;15.27;;;11.20;1.00;;;;;;6252456;22;37796;-78
2024/03/07 12:19:33;;;;;;;24.67;17.40;;;11.20;1.00;;;;;;6249393;22;47264;-77
2024/03/07 12:22:02;;;;;;;20.85;15.73;;;11.30;1.00;;;;;;6249416;22;38443;-78
2024/03/07 12:24:29;;;;;;;24.50;15.43;;;11.30;99.90;;;;;;6246085;22;47221;-77
2024/03/07 12:27:10;;;;;;;22.10;16.08;;;11.30;1.00;;;;;;6250291;22;39777;-78
2024/03/07 12:29:38;;;;;;;20.40;16.10;;;11.40;99.90;;;;;;6250195;22;49756;-78
2024/03/07 12:32:07;;;;;;;23.80;16.65;;;11.40;99.90;;;;;;6251135;22;38932;-78
2024/03/07 12:34:40;;;;;;;24.50;16.63;;;11.40;36.40;;;;;;6251770;22;38241;-78
2024/03/07 12:37:08;;;;;;;25.75;16.45;;;11.30;99.90;;;;;;6251998;22;39931;-78
2024/03/07 12:39:36;;;;;;;22.33;16.73;;;11.50;1.00;;;;;;6255563;22;38587;-78
2024/03/07 12:42:05;;;;;;;23.67;17.15;;;11.40;99.90;;;;;;6253606;22;40080;-77
2024/03/07 12:44:47;;;;;;;25.45;18.20;;;11.30;99.90;;;;;;6252419;22;36054;-78